Time;durP1;ratioP1;P1;durP2;ratioP2;P2;SDS_P1;SDS_P2;PMS_P1;PMS_P2;Temp;Humidity;BMP_temperature;BMP_pressure;BME280_temperature;BME280_humidity;BME280_pressure;Samples;Min_cycle;Max_cycle;Signal;HPM_P1;HPM_P2
2022/06/09 00:04:39;;;;;;;11.70;6.60;;;;;;;-147.53;100.00;57128.34;10332945;28;20140;-76
2022/06/09 00:09:47;;;;;;;9.48;6.10;;;;;;;-147.53;100.00;57128.34;10325419;28;20093;-75
2022/06/09 00:14:49;;;;;;;11.95;6.20;;;;;;;-147.53;100.00;57128.34;10319313;28;20054;-75
2022/06/09 00:19:51;;;;;;;14.90;6.47;;;;;;;-147.53;100.00;57128.34;10331516;28;20046;-76
2022/06/09 00:24:53;;;;;;;16.35;7.90;;;;;;;-147.53;100.00;57128.34;10324832;28;20046;-76
2022/06/09 00:29:54;;;;;;;13.85;7.00;;;;;;;-147.53;100.00;57128.34;10327676;28;20042;-75
2022/06/09 00:34:56;;;;;;;14.57;7.95;;;;;;;-147.53;100.00;57128.34;10330469;28;20706;-76
2022/06/09 00:39:59;;;;;;;17.30;9.10;;;;;;;-147.53;100.00;57128.34;10331373;28;20042;-75
2022/06/09 00:45:20;;;;;;;19.02;10.48;;;;;;;-147.53;100.00;57128.34;10338590;28;20053;-76
2022/06/09 00:50:26;;;;;;;19.80;11.57;;;;;;;-147.53;100.00;57128.34;10333020;28;20129;-75
2022/06/09 00:55:31;;;;;;;24.63;13.23;;;;;;;-147.53;100.00;57128.34;10307017;28;20049;-74
2022/06/09 01:00:51;;;;;;;25.73;13.18;;;;;;;-147.53;100.00;57128.34;10325915;28;20053;-75
2022/06/09 01:06:04;;;;;;;32.07;14.73;;;;;;;-147.53;100.00;57128.34;10332486;28;20149;-75
2022/06/09 01:11:05;;;;;;;32.22;15.57;;;;;;;-147.53;100.00;57128.34;10326258;28;20054;-77
2022/06/09 01:16:21;;;;;;;38.35;16.80;;;;;;;-147.53;100.00;57128.34;10324453;28;20038;-76
2022/06/09 01:22:04;;;;;;;29.73;15.75;;;;;;;-147.53;100.00;57128.34;10323840;28;20050;-77
2022/06/09 01:27:17;;;;;;;34.92;17.35;;;;;;;-147.53;100.00;57128.34;10325652;28;20060;-75
2022/06/09 01:32:33;;;;;;;26.75;16.55;;;;;;;-147.53;100.00;57128.34;10327396;28;20073;-75
2022/06/09 01:37:40;;;;;;;34.05;16.58;;;;;;;-147.53;100.00;57128.34;10335517;28;20042;-74
2022/06/09 01:42:45;;;;;;;30.42;18.15;;;;;;;-147.53;100.00;57128.34;10322511;28;20169;-75
2022/06/09 01:48:16;;;;;;;32.15;18.02;;;;;;;-147.53;100.00;57128.34;10342379;28;20137;-76
2022/06/09 01:53:24;;;;;;;35.45;18.75;;;;;;;-147.53;100.00;57128.34;10318768;28;20046;-75
2022/06/09 01:58:31;;;;;;;37.27;18.50;;;;;;;-147.53;100.00;57128.34;10337542;28;20527;-76
2022/06/09 02:03:39;;;;;;;37.30;19.25;;;;;;;-147.53;100.00;57128.34;10331531;28;20128;-75
2022/06/09 02:08:41;;;;;;;34.88;17.15;;;;;;;-147.53;100.00;57128.34;10334015;28;20053;-75
2022/06/09 02:13:49;;;;;;;34.72;17.85;;;;;;;-147.53;100.00;57128.34;10329123;28;20145;-75
2022/06/09 02:18:56;;;;;;;35.63;18.27;;;;;;;-147.53;100.00;57128.34;10329902;28;20052;-75
2022/06/09 02:23:57;;;;;;;36.42;18.35;;;;;;;-147.53;100.00;57128.34;10332791;28;20145;-75
2022/06/09 02:28:59;;;;;;;36.83;17.88;;;;;;;-147.53;100.00;57128.34;10322029;28;20045;-76
2022/06/09 02:34:01;;;;;;;35.70;17.75;;;;;;;-147.53;100.00;57128.34;10316500;28;20058;-75
2022/06/09 02:39:03;;;;;;;31.85;17.38;;;;;;;-147.53;100.00;57128.34;10353865;28;20529;-76
2022/06/09 02:44:05;;;;;;;32.17;17.73;;;;;;;-147.53;100.00;57128.34;10349147;28;20565;-76
2022/06/09 02:49:07;;;;;;;39.03;17.88;;;;;;;-147.53;100.00;57128.34;10348613;28;20073;-74
2022/06/09 02:54:13;;;;;;;31.70;16.80;;;;;;;-147.53;100.00;57128.34;10349218;28;20129;-75
2022/06/09 02:59:15;;;;;;;32.10;16.58;;;;;;;-147.53;100.00;57128.34;10355910;28;20065;-75
2022/06/09 03:04:16;;;;;;;35.58;17.90;;;;;;;-147.53;100.00;57128.34;10328830;28;20249;-75
2022/06/09 03:09:18;;;;;;;31.58;17.27;;;;;;;-147.53;100.00;57128.34;10348819;28;20042;-76
2022/06/09 03:14:20;;;;;;;39.65;18.05;;;;;;;-147.53;100.00;57128.34;10354358;28;20444;-76
2022/06/09 03:19:22;;;;;;;31.55;17.13;;;;;;;-147.53;100.00;57128.34;10346058;28;20506;-76
2022/06/09 03:24:23;;;;;;;34.17;17.48;;;;;;;-147.53;100.00;57128.34;10362043;28;20088;-75
2022/06/09 03:29:25;;;;;;;36.45;18.65;;;;;;;-147.53;100.00;57128.34;10355082;28;20049;-75
2022/06/09 03:34:27;;;;;;;37.83;18.20;;;;;;;-147.53;100.00;57128.34;10360063;28;20049;-76
2022/06/09 03:39:29;;;;;;;36.75;18.08;;;;;;;-147.53;100.00;57128.34;10352456;28;20034;-75
2022/06/09 03:44:30;;;;;;;31.05;16.95;;;;;;;-147.53;100.00;57128.34;10359930;28;20050;-75
2022/06/09 03:49:32;;;;;;;33.55;17.45;;;;;;;-147.53;100.00;57128.34;10354121;28;20880;-75
2022/06/09 03:54:34;;;;;;;41.22;16.92;;;;;;;-147.53;100.00;57128.34;10355280;28;20130;-75
2022/06/09 03:59:35;;;;;;;33.55;16.60;;;;;;;-147.53;100.00;57128.34;10360484;28;20038;-75
2022/06/09 04:04:43;;;;;;;29.88;15.32;;;;;;;-147.53;100.00;57128.34;10337635;28;20050;-75
2022/06/09 04:09:44;;;;;;;33.92;16.17;;;;;;;-147.53;100.00;57128.34;10353213;28;20048;-74
2022/06/09 04:14:47;;;;;;;31.77;16.10;;;;;;;-147.53;100.00;57128.34;10336471;28;20153;-76
2022/06/09 04:19:48;;;;;;;29.25;16.42;;;;;;;-147.53;100.00;57128.34;10301346;28;20137;-75
2022/06/09 04:24:50;;;;;;;37.65;17.13;;;;;;;-147.53;100.00;57128.34;10301675;28;20050;-75
2022/06/09 04:29:51;;;;;;;29.35;15.63;;;;;;;-147.53;100.00;57128.34;10318503;28;20070;-75
2022/06/09 04:34:53;;;;;;;33.28;15.38;;;;;;;-147.53;100.00;57128.34;10352532;28;20395;-74
2022/06/09 04:39:54;;;;;;;35.97;15.30;;;;;;;-147.53;100.00;57128.34;10352565;28;20736;-74
2022/06/09 04:44:57;;;;;;;38.33;15.85;;;;;;;-147.53;100.00;57128.34;10352806;28;20057;-74
2022/06/09 04:49:58;;;;;;;27.48;14.38;;;;;;;-147.53;100.00;57128.34;10345466;28;20046;-74
2022/06/09 04:55:00;;;;;;;32.85;15.73;;;;;;;-147.53;100.00;57128.34;10348541;28;20105;-73
2022/06/09 05:00:06;;;;;;;30.42;13.85;;;;;;;-147.53;100.00;57128.34;10355536;28;20552;-75
2022/06/09 05:05:16;;;;;;;32.08;14.60;;;;;;;-147.53;100.00;57128.34;10352021;28;20050;-74
2022/06/09 05:10:18;;;;;;;27.42;12.98;;;;;;;-147.53;100.00;57128.34;10340874;28;20549;-75
2022/06/09 05:15:20;;;;;;;27.35;12.90;;;;;;;-147.53;100.00;57128.34;10345701;28;20136;-75
2022/06/09 05:20:23;;;;;;;28.83;12.57;;;;;;;-147.53;100.00;57128.34;10351370;28;20045;-76
2022/06/09 05:25:25;;;;;;;24.00;11.13;;;;;;;-147.53;100.00;57128.34;10358474;28;20558;-75
2022/06/09 05:30:27;;;;;;;26.52;11.52;;;;;;;-147.53;100.00;57128.34;10357251;28;20074;-74
2022/06/09 05:35:29;;;;;;;23.80;10.52;;;;;;;-147.53;100.00;57128.34;10338327;28;20037;-75
2022/06/09 05:45:51;;;;;;;21.10;10.52;;;;;;;-147.53;100.00;57128.34;10327170;28;20133;-75
2022/06/09 05:50:54;;;;;;;21.02;10.32;;;;;;;-147.53;100.00;57128.34;10330301;28;20052;-74
2022/06/09 05:55:55;;;;;;;22.65;10.13;;;;;;;-147.53;100.00;57128.34;10303617;28;20100;-75
2022/06/09 06:00:58;;;;;;;23.98;9.43;;;;;;;-147.53;100.00;57128.34;10314799;28;20060;-74
2022/06/09 06:11:21;;;;;;;21.50;9.48;;;;;;;-147.53;100.00;57128.34;10330438;28;20117;-74
2022/06/09 06:16:23;;;;;;;22.00;9.18;;;;;;;-147.53;100.00;57128.34;10333745;28;20050;-73
2022/06/09 06:21:42;;;;;;;18.83;9.68;;;;;;;-147.53;100.00;57128.34;10326002;28;20598;-74
2022/06/09 06:26:44;;;;;;;23.02;9.65;;;;;;;-147.53;100.00;57128.34;10316972;28;20128;-75
2022/06/09 06:31:46;;;;;;;20.88;9.98;;;;;;;-147.53;100.00;57128.34;10323696;28;20121;-74
2022/06/09 06:36:48;;;;;;;24.65;11.30;;;;;;;-147.53;100.00;57128.34;10329901;28;20937;-75
2022/06/09 06:41:50;;;;;;;20.05;10.02;;;;;;;-147.53;100.00;57128.34;10324272;28;20092;-75
2022/06/09 06:46:51;;;;;;;23.15;10.93;;;;;;;-147.53;100.00;57128.34;10330432;28;20038;-76
2022/06/09 06:51:53;;;;;;;25.35;10.77;;;;;;;-147.53;100.00;57128.34;10333780;28;20049;-73
2022/06/09 06:56:54;;;;;;;23.48;10.40;;;;;;;-147.53;100.00;57128.34;10341829;28;20042;-75
2022/06/09 07:01:56;;;;;;;25.10;10.70;;;;;;;-147.53;100.00;57128.34;10329724;28;20054;-74
2022/06/09 07:06:57;;;;;;;19.92;10.63;;;;;;;-147.53;100.00;57128.34;10345986;28;20049;-75
2022/06/09 07:11:59;;;;;;;21.75;10.65;;;;;;;-147.53;100.00;57128.34;10351809;28;20140;-74
2022/06/09 07:17:01;;;;;;;19.05;10.15;;;;;;;-147.53;100.00;57128.34;10346023;28;20050;-74
2022/06/09 07:22:04;;;;;;;20.92;9.70;;;;;;;-147.53;100.00;57128.34;10354834;28;20054;-74
2022/06/09 07:27:05;;;;;;;28.02;10.93;;;;;;;-147.53;100.00;57128.34;10331250;28;20073;-74
2022/06/09 07:32:08;;;;;;;20.63;10.60;;;;;;;-147.53;100.00;57128.34;10343237;28;20479;-74
2022/06/09 07:37:11;;;;;;;20.15;10.52;;;;;;;-147.53;100.00;57128.34;10344187;28;20074;-74
2022/06/09 07:42:13;;;;;;;21.17;10.80;;;;;;;-147.53;100.00;57128.34;10335680;28;20038;-73
2022/06/09 07:47:14;;;;;;;20.33;10.40;;;;;;;-147.53;100.00;57128.34;10324286;28;20548;-74
2022/06/09 07:52:17;;;;;;;19.52;10.02;;;;;;;-147.53;100.00;57128.34;10337756;28;20044;-74
2022/06/09 07:57:18;;;;;;;21.13;10.02;;;;;;;-147.53;100.00;57128.34;10306132;28;20046;-74
2022/06/09 08:02:20;;;;;;;18.95;9.73;;;;;;;-147.53;100.00;57128.34;10320489;28;20048;-73
2022/06/09 08:07:22;;;;;;;15.25;9.15;;;;;;;-147.53;100.00;57128.34;10346910;28;20072;-73
2022/06/09 08:12:23;;;;;;;15.38;9.93;;;;;;;-147.53;100.00;57128.34;10348362;28;20042;-75
2022/06/09 08:17:25;;;;;;;15.52;9.65;;;;;;;-147.53;100.00;57128.34;10344542;28;20038;-75
2022/06/09 08:22:27;;;;;;;16.85;8.90;;;;;;;-147.53;100.00;57128.34;10312629;28;20053;-76
2022/06/09 08:27:29;;;;;;;24.98;10.23;;;;;;;-147.53;100.00;57128.34;10343928;28;20052;-76
2022/06/09 08:32:31;;;;;;;16.20;9.57;;;;;;;-147.53;100.00;57128.34;10346163;28;20413;-76
2022/06/09 08:37:33;;;;;;;14.63;8.70;;;;;;;-147.53;100.00;57128.34;10341815;28;20061;-76
2022/06/09 08:43:10;;;;;;;16.23;8.27;;;;;;;-147.53;100.00;57128.34;10353003;28;20449;-75
2022/06/09 08:48:18;;;;;;;18.05;8.38;;;;;;;-147.53;100.00;57128.34;10338178;28;20052;-80
2022/06/09 08:53:29;;;;;;;21.10;8.83;;;;;;;-147.53;100.00;57128.34;10356743;28;20611;-76
2022/06/09 08:58:43;;;;;;;19.35;8.80;;;;;;;-147.53;100.00;57128.34;10336596;28;20045;-74
2022/06/09 09:03:57;;;;;;;14.32;7.28;;;;;;;-147.53;100.00;57128.34;10331700;28;20048;-76
2022/06/09 09:09:11;;;;;;;14.73;8.20;;;;;;;-147.53;100.00;57128.34;10330105;28;20046;-75
2022/06/09 09:14:28;;;;;;;17.88;7.90;;;;;;;-147.53;100.00;57128.34;10336237;28;20044;-75
2022/06/09 09:19:43;;;;;;;14.25;7.72;;;;;;;-147.53;100.00;57128.34;10336868;28;20072;-75
2022/06/09 09:24:53;;;;;;;13.15;7.88;;;;;;;-147.53;100.00;57128.34;10334448;28;20053;-75
2022/06/09 09:30:04;;;;;;;14.13;8.15;;;;;;;-147.53;100.00;57128.34;10321761;28;20052;-75
2022/06/09 09:35:12;;;;;;;12.85;8.43;;;;;;;-147.53;100.00;57128.34;10325221;28;20100;-74
2022/06/09 09:40:34;;;;;;;17.70;7.63;;;;;;;-147.53;100.00;57128.34;10349858;28;20665;-76
2022/06/09 09:45:43;;;;;;;16.55;7.50;;;;;;;-147.53;100.00;57128.34;10337734;28;20137;-75
2022/06/09 09:50:52;;;;;;;11.65;6.97;;;;;;;-147.53;100.00;57128.34;10327481;28;20136;-74
2022/06/09 09:55:59;;;;;;;15.02;7.30;;;;;;;-147.53;100.00;57128.34;10329116;28;20049;-75
2022/06/09 10:01:16;;;;;;;12.85;5.72;;;;;;;-147.53;100.00;57128.34;10322163;28;20433;-76
2022/06/09 10:12:22;;;;;;;10.85;5.97;;;;;;;-147.53;100.00;57128.34;10314067;28;20193;-77
2022/06/09 10:17:48;;;;;;;15.85;5.97;;;;;;;-147.53;100.00;57128.34;10347796;28;20056;-77
2022/06/09 10:23:11;;;;;;;10.57;5.25;;;;;;;-147.53;100.00;57128.34;10329229;28;20072;-76
2022/06/09 10:28:39;;;;;;;8.60;4.32;;;;;;;-147.53;100.00;57128.34;10320049;28;20042;-77
2022/06/09 10:33:46;;;;;;;9.50;4.80;;;;;;;-147.53;100.00;57128.34;10333379;28;20129;-76
2022/06/09 10:39:13;;;;;;;8.15;4.30;;;;;;;-147.53;100.00;57128.34;10333652;28;20060;-72
2022/06/09 10:44:22;;;;;;;8.57;3.60;;;;;;;-147.53;100.00;57128.34;10337950;28;20042;-74
2022/06/09 10:55:30;;;;;;;7.18;3.08;;;;;;;-147.53;100.00;57128.34;10329726;28;20368;-72
2022/06/09 11:00:39;;;;;;;6.22;2.90;;;;;;;-147.53;100.00;57128.34;10319112;28;20046;-72
2022/06/09 11:05:55;;;;;;;6.97;2.42;;;;;;;-147.53;100.00;57128.34;10329170;28;20069;-73
2022/06/09 11:11:23;;;;;;;5.20;2.67;;;;;;;-147.53;100.00;57128.34;10342157;28;20052;-72
2022/06/09 11:16:38;;;;;;;8.23;2.53;;;;;;;-147.53;100.00;57128.34;10318329;28;20046;-72
2022/06/09 11:21:50;;;;;;;11.50;2.42;;;;;;;-147.53;100.00;57128.34;10325542;28;20049;-71
2022/06/09 11:27:20;;;;;;;6.60;2.40;;;;;;;-147.53;100.00;57128.34;10321492;28;20060;-72
2022/06/09 11:32:40;;;;;;;3.97;1.95;;;;;;;-147.53;100.00;57128.34;10317239;28;20556;-71
2022/06/09 11:37:56;;;;;;;5.55;1.70;;;;;;;-147.53;100.00;57128.34;10323046;28;20037;-72
2022/06/09 11:43:16;;;;;;;3.63;1.75;;;;;;;-147.53;100.00;57128.34;10322857;28;20083;-72
2022/06/09 11:48:31;;;;;;;5.18;1.63;;;;;;;-147.53;100.00;57128.34;10331909;28;20079;-72
2022/06/09 11:53:39;;;;;;;7.55;1.58;;;;;;;-147.53;100.00;57128.34;10334245;28;20048;-71
2022/06/09 11:58:45;;;;;;;4.40;1.20;;;;;;;-147.53;100.00;57128.34;10323514;28;20052;-72
2022/06/09 12:04:05;;;;;;;3.80;1.20;;;;;;;-147.53;100.00;57128.34;10322234;28;20051;-71
2022/06/09 12:09:26;;;;;;;2.60;1.08;;;;;;;-147.53;100.00;57128.34;10321599;28;20136;-72
2022/06/09 12:14:35;;;;;;;5.88;2.55;;;;;;;-147.53;100.00;57128.34;10322400;28;20054;-72
2022/06/09 12:19:53;;;;;;;3.75;1.10;;;;;;;-147.53;100.00;57128.34;10325879;28;20046;-72
2022/06/09 12:25:10;;;;;;;4.18;0.85;;;;;;;-147.53;100.00;57128.34;10327013;28;20046;-71
2022/06/09 12:30:19;;;;;;;5.00;0.95;;;;;;;-147.53;100.00;57128.34;10331618;28;20088;-70
2022/06/09 12:35:24;;;;;;;;;;;;;;;-147.53;100.00;57128.34;10332585;28;20057;-71
2022/06/09 12:40:33;;;;;;;1.70;0.65;;;;;;;-147.53;100.00;57128.34;10336436;28;20008;-72
2022/06/09 12:45:38;;;;;;;2.25;0.80;;;;;;;-147.53;100.00;57128.34;10338506;28;20072;-70
2022/06/09 12:50:45;;;;;;;3.10;0.80;;;;;;;-147.53;100.00;57128.34;10323380;28;20906;-71
2022/06/09 12:55:52;;;;;;;1.98;0.70;;;;;;;-147.53;100.00;57128.34;10328403;28;20056;-71
2022/06/09 13:00:58;;;;;;;6.80;0.82;;;;;;;-147.53;100.00;57128.34;10330326;28;20126;-73
2022/06/09 13:06:37;;;;;;;2.33;0.80;;;;;;;-147.53;100.00;57128.34;10324830;28;20080;-74
2022/06/09 13:17:17;;;;;;;5.60;1.13;;;;;;;-147.53;100.00;57128.34;10324637;28;20072;-74
2022/06/09 13:22:20;;;;;;;8.65;1.08;;;;;;;-147.53;100.00;57128.34;10334606;28;20068;-75
2022/06/09 13:27:28;;;;;;;2.85;0.80;;;;;;;-147.53;100.00;57128.34;10329022;28;20568;-74
2022/06/09 13:32:39;;;;;;;8.07;1.10;;;;;;;-147.53;100.00;57128.34;10329610;28;20042;-72
2022/06/09 13:37:44;;;;;;;7.75;0.93;;;;;;;-147.53;100.00;57128.34;10322865;28;20860;-72
2022/06/09 13:43:00;;;;;;;9.20;1.10;;;;;;;-147.53;100.00;57128.34;10322598;28;20486;-75
2022/06/09 13:48:12;;;;;;;2.78;0.75;;;;;;;-147.53;100.00;57128.34;10306695;28;20050;-75
2022/06/09 13:53:38;;;;;;;5.97;1.00;;;;;;;-147.53;100.00;57128.34;10307660;28;20038;-74
2022/06/09 13:58:40;;;;;;;4.50;0.98;;;;;;;-147.53;100.00;57128.34;10325718;28;20049;-73
2022/06/09 14:03:46;;;;;;;4.88;0.90;;;;;;;-147.53;100.00;57128.34;10334108;28;20050;-74
2022/06/09 14:08:50;;;;;;;3.78;0.98;;;;;;;-147.53;100.00;57128.34;10334300;28;20048;-73
2022/06/09 14:13:55;;;;;;;4.43;0.90;;;;;;;-147.53;100.00;57128.34;10324714;28;20054;-73
2022/06/09 14:18:56;;;;;;;5.70;1.00;;;;;;;-147.53;100.00;57128.34;10301622;28;20108;-72
2022/06/09 14:24:05;;;;;;;5.28;1.27;;;;;;;-147.53;100.00;57128.34;10338692;28;20060;-72
2022/06/09 14:29:08;;;;;;;;;;;;;;;-147.53;100.00;57128.34;10325869;28;20405;-72
2022/06/09 14:34:09;;;;;;;5.63;1.30;;;;;;;-147.53;100.00;57128.34;10323570;28;19922;-75
2022/06/09 14:39:16;;;;;;;6.20;1.38;;;;;;;-147.53;100.00;57128.34;10328199;28;20126;-77
2022/06/09 14:44:17;;;;;;;4.72;1.05;;;;;;;-147.53;100.00;57128.34;10313096;28;20492;-77
2022/06/09 14:49:21;;;;;;;4.60;0.88;;;;;;;-147.53;100.00;57128.34;10316813;28;20042;-74
2022/06/09 14:54:23;;;;;;;5.88;1.00;;;;;;;-147.53;100.00;57128.34;10302076;28;20077;-76
2022/06/09 14:59:25;;;;;;;6.25;2.10;;;;;;;-147.53;100.00;57128.34;10320307;28;20477;-78
2022/06/09 15:04:27;;;;;;;10.95;1.42;;;;;;;-147.53;100.00;57128.34;10313111;28;20073;-75
2022/06/09 15:09:29;;;;;;;8.80;0.95;;;;;;;-147.53;100.00;57128.34;10313603;28;20053;-75
2022/06/09 15:14:30;;;;;;;6.50;1.10;;;;;;;-147.53;100.00;57128.34;10308667;28;20065;-74
2022/06/09 15:19:35;;;;;;;4.43;0.77;;;;;;;-147.53;100.00;57128.34;10299352;28;20512;-74
2022/06/09 15:24:37;;;;;;;14.77;1.30;;;;;;;-147.53;100.00;57128.34;10319062;28;20035;-76
2022/06/09 15:29:38;;;;;;;5.32;1.00;;;;;;;-147.53;100.00;57128.34;10299120;28;20051;-76
2022/06/09 15:34:41;;;;;;;8.68;1.08;;;;;;;-147.53;100.00;57128.34;10323655;28;20048;-79
2022/06/09 15:39:43;;;;;;;5.38;1.15;;;;;;;-147.53;100.00;57128.34;10325179;28;20070;-76
2022/06/09 15:44:44;;;;;;;11.45;1.17;;;;;;;-147.53;100.00;57128.34;10319913;28;20039;-74
2022/06/09 15:49:46;;;;;;;6.57;1.00;;;;;;;-147.53;100.00;57128.34;10320123;28;20038;-76
2022/06/09 15:54:48;;;;;;;5.80;1.58;;;;;;;-147.53;100.00;57128.34;10320388;28;20042;-77
2022/06/09 15:59:49;;;;;;;4.43;0.95;;;;;;;-147.53;100.00;57128.34;10317796;28;20050;-74
2022/06/09 16:04:51;;;;;;;34.08;2.42;;;;;;;-147.53;100.00;57128.34;10322536;28;20039;-81
2022/06/09 16:09:53;;;;;;;6.10;0.77;;;;;;;-147.53;100.00;57128.34;10295790;28;20046;-79
2022/06/09 16:14:55;;;;;;;4.95;1.08;;;;;;;-147.53;100.00;57128.34;10307679;28;20048;-77
2022/06/09 16:19:57;;;;;;;4.78;1.00;;;;;;;-147.53;100.00;57128.34;10321814;28;20038;-76
2022/06/09 16:24:58;;;;;;;9.07;1.20;;;;;;;-147.53;100.00;57128.34;10325390;28;20137;-75
2022/06/09 16:30:00;;;;;;;4.88;1.27;;;;;;;-147.53;100.00;57128.34;10324891;28;20043;-76
2022/06/09 16:35:03;;;;;;;5.28;1.40;;;;;;;-147.53;100.00;57128.34;10318220;28;20460;-73
2022/06/09 16:40:06;;;;;;;9.30;1.35;;;;;;;-147.53;100.00;57128.34;10311432;28;20081;-75
2022/06/09 16:45:08;;;;;;;5.68;1.45;;;;;;;-147.53;100.00;57128.34;10300667;28;20577;-75
2022/06/09 16:50:12;;;;;;;14.25;1.90;;;;;;;-147.53;100.00;57128.34;10317073;28;20050;-76
2022/06/09 16:55:14;;;;;;;48.70;4.22;;;;;;;-147.53;100.00;57128.34;10299928;28;20529;-75
2022/06/09 17:00:21;;;;;;;12.18;2.28;;;;;;;-147.53;100.00;57128.34;10317434;28;20092;-74
2022/06/09 17:05:25;;;;;;;8.60;1.40;;;;;;;-147.53;100.00;57128.34;10317074;28;20556;-75
2022/06/09 17:10:29;;;;;;;5.65;1.00;;;;;;;-147.53;100.00;57128.34;10293922;28;20039;-74
2022/06/09 17:15:33;;;;;;;3.63;0.90;;;;;;;-147.53;100.00;57128.34;10316173;28;20038;-74
2022/06/09 17:20:37;;;;;;;2.28;0.80;;;;;;;-147.53;100.00;57128.34;10315300;28;20045;-74
2022/06/09 17:25:39;;;;;;;6.35;0.98;;;;;;;-147.53;100.00;57128.34;10312247;28;20676;-74
2022/06/09 17:30:42;;;;;;;4.90;1.15;;;;;;;-147.53;100.00;57128.34;10299242;28;20050;-73
2022/06/09 17:35:46;;;;;;;7.18;1.10;;;;;;;-147.53;100.00;57128.34;10320334;28;20650;-74
2022/06/09 17:40:48;;;;;;;8.07;1.30;;;;;;;-147.53;100.00;57128.34;10297205;28;20050;-71
2022/06/09 17:45:50;;;;;;;3.97;1.10;;;;;;;-147.53;100.00;57128.34;10327392;28;20042;-73
2022/06/09 17:50:53;;;;;;;3.78;1.00;;;;;;;-147.53;100.00;57128.34;10308518;28;20049;-74
2022/06/09 17:55:56;;;;;;;8.07;1.40;;;;;;;-147.53;100.00;57128.34;10331286;28;20498;-75
2022/06/09 18:01:00;;;;;;;5.05;1.13;;;;;;;-147.53;100.00;57128.34;10315470;28;20054;-76
2022/06/09 18:06:04;;;;;;;4.43;1.02;;;;;;;-147.53;100.00;57128.34;10309485;28;20579;-76
2022/06/09 18:11:17;;;;;;;5.40;1.08;;;;;;;-147.53;100.00;57128.34;10292543;28;20034;-76
2022/06/09 18:16:19;;;;;;;6.68;1.30;;;;;;;-147.53;100.00;57128.34;10309101;28;20038;-75
2022/06/09 18:21:27;;;;;;;5.75;1.10;;;;;;;-147.53;100.00;57128.34;10279897;28;20042;-75
2022/06/09 18:26:28;;;;;;;6.70;1.63;;;;;;;-147.53;100.00;57128.34;10295804;28;20802;-75
2022/06/09 18:31:30;;;;;;;4.32;1.20;;;;;;;-147.53;100.00;57128.34;10311869;28;20050;-76
2022/06/09 18:36:32;;;;;;;6.07;1.30;;;;;;;-147.53;100.00;57128.34;10310849;28;20133;-75
2022/06/09 18:41:33;;;;;;;9.48;1.52;;;;;;;-147.53;100.00;57128.34;10296366;28;20421;-75
2022/06/09 18:46:36;;;;;;;8.43;1.55;;;;;;;-147.53;100.00;57128.34;10312752;28;20039;-75
2022/06/09 18:51:37;;;;;;;6.88;1.45;;;;;;;-147.53;100.00;57128.34;10305916;28;20065;-75
2022/06/09 18:56:40;;;;;;;9.45;1.70;;;;;;;-147.53;100.00;57128.34;10313546;28;20061;-74
2022/06/09 19:01:41;;;;;;;6.85;1.58;;;;;;;-147.53;100.00;57128.34;10320792;28;20042;-74
2022/06/09 19:06:44;;;;;;;6.70;1.83;;;;;;;-147.53;100.00;57128.34;10320464;28;20050;-75
2022/06/09 19:11:46;;;;;;;9.50;1.70;;;;;;;-147.53;100.00;57128.34;10307718;28;20081;-75
2022/06/09 19:16:47;;;;;;;8.85;1.70;;;;;;;-147.53;100.00;57128.34;10315231;28;20085;-74
2022/06/09 19:21:49;;;;;;;7.70;2.28;;;;;;;-147.53;100.00;57128.34;10313444;28;20041;-75
2022/06/09 19:26:50;;;;;;;10.82;1.80;;;;;;;-147.53;100.00;57128.34;10318993;28;20050;-74
2022/06/09 19:31:52;;;;;;;13.27;1.52;;;;;;;-147.53;100.00;57128.34;10318462;28;20050;-74
2022/06/09 19:36:56;;;;;;;9.35;1.80;;;;;;;-147.53;100.00;57128.34;10316145;28;20104;-74
2022/06/09 19:41:58;;;;;;;8.98;1.60;;;;;;;-147.53;100.00;57128.34;10315372;28;20395;-75
2022/06/09 19:47:02;;;;;;;8.23;1.58;;;;;;;-147.53;100.00;57128.34;10317830;28;20046;-74
2022/06/09 19:52:04;;;;;;;9.93;1.60;;;;;;;-147.53;100.00;57128.34;10315557;28;20057;-74
2022/06/09 19:57:06;;;;;;;6.88;2.08;;;;;;;-147.53;100.00;57128.34;10320356;28;20050;-74
2022/06/09 20:02:10;;;;;;;5.95;1.45;;;;;;;-147.53;100.00;57128.34;10302611;28;20516;-75
2022/06/09 20:07:15;;;;;;;10.77;1.85;;;;;;;-147.53;100.00;57128.34;10315358;28;20042;-74
2022/06/09 20:12:17;;;;;;;10.10;2.08;;;;;;;-147.53;100.00;57128.34;10302744;28;20054;-73
2022/06/09 20:17:22;;;;;;;11.43;2.00;;;;;;;-147.53;100.00;57128.34;10295768;28;20233;-74
2022/06/09 20:22:24;;;;;;;6.85;1.88;;;;;;;-147.53;100.00;57128.34;10315760;28;20448;-74
2022/06/09 20:27:28;;;;;;;7.18;1.90;;;;;;;-147.53;100.00;57128.34;10303453;28;20425;-74
2022/06/09 20:32:29;;;;;;;7.45;1.88;;;;;;;-147.53;100.00;57128.34;10318413;28;20418;-74
2022/06/09 20:37:31;;;;;;;9.98;2.05;;;;;;;-147.53;100.00;57128.34;10319151;28;20056;-74
2022/06/09 20:42:33;;;;;;;8.30;1.90;;;;;;;-147.53;100.00;57128.34;10317519;28;20054;-73
2022/06/09 20:47:36;;;;;;;9.98;2.22;;;;;;;-147.53;100.00;57128.34;10318484;28;20046;-74
2022/06/09 20:52:40;;;;;;;9.23;2.50;;;;;;;-147.53;100.00;57128.34;10317217;28;20054;-74
2022/06/09 20:57:43;;;;;;;11.35;2.60;;;;;;;-147.53;100.00;57128.34;10318861;28;20054;-74
2022/06/09 21:02:44;;;;;;;10.77;3.10;;;;;;;-147.53;100.00;57128.34;10317348;28;20050;-73
2022/06/09 21:07:46;;;;;;;10.82;2.45;;;;;;;-147.53;100.00;57128.34;10300677;28;20572;-74
2022/06/09 21:18:15;;;;;;;9.68;2.72;;;;;;;-147.53;100.00;57128.34;10310771;28;20050;-74
2022/06/09 21:23:16;;;;;;;9.40;2.50;;;;;;;-147.53;100.00;57128.34;10299458;28;20057;-74
2022/06/09 21:28:19;;;;;;;8.63;2.25;;;;;;;-147.53;100.00;57128.34;10317410;28;20054;-74
2022/06/09 21:33:21;;;;;;;8.48;1.83;;;;;;;-147.53;100.00;57128.34;10316738;28;20058;-74
2022/06/09 21:38:23;;;;;;;8.35;2.13;;;;;;;-147.53;100.00;57128.34;10316366;28;20054;-74
2022/06/09 21:43:24;;;;;;;8.90;2.70;;;;;;;-147.53;100.00;57128.34;10298096;28;20049;-74
2022/06/09 21:48:29;;;;;;;12.85;2.05;;;;;;;-147.53;100.00;57128.34;10315866;28;20057;-74
2022/06/09 21:53:31;;;;;;;7.00;2.00;;;;;;;-147.53;100.00;57128.34;10298586;28;20050;-74
2022/06/09 21:58:36;;;;;;;11.98;2.35;;;;;;;-147.53;100.00;57128.34;10316130;28;20050;-73
2022/06/09 22:03:37;;;;;;;8.15;2.08;;;;;;;-147.53;100.00;57128.34;10315427;28;20046;-74
2022/06/09 22:08:39;;;;;;;9.02;2.85;;;;;;;-147.53;100.00;57128.34;10315960;28;20532;-73
2022/06/09 22:13:41;;;;;;;5.35;1.88;;;;;;;-147.53;100.00;57128.34;10315208;28;20054;-74
2022/06/09 22:18:43;;;;;;;7.75;2.10;;;;;;;-147.53;100.00;57128.34;10302876;28;20052;-77
2022/06/09 22:23:45;;;;;;;8.13;2.22;;;;;;;-147.53;100.00;57128.34;10299976;28;20042;-76
2022/06/09 22:28:50;;;;;;;6.80;2.25;;;;;;;-147.53;100.00;57128.34;10312729;28;20116;-76
2022/06/09 22:33:52;;;;;;;7.93;2.35;;;;;;;-147.53;100.00;57128.34;10332430;28;20137;-76
2022/06/09 22:38:53;;;;;;;6.93;2.00;;;;;;;-147.53;100.00;57128.34;10325020;28;20055;-74
2022/06/09 22:43:55;;;;;;;6.78;2.00;;;;;;;-147.53;100.00;57128.34;10306818;28;20049;-76
2022/06/09 22:48:56;;;;;;;6.55;2.30;;;;;;;-147.53;100.00;57128.34;10325177;28;20050;-75
2022/06/09 22:53:58;;;;;;;10.85;2.45;;;;;;;-147.53;100.00;57128.34;10324121;28;20130;-75
2022/06/09 22:59:00;;;;;;;9.95;2.88;;;;;;;-147.53;100.00;57128.34;10325674;28;20490;-76
2022/06/09 23:04:02;;;;;;;8.90;2.70;;;;;;;-147.53;100.00;57128.34;10304121;28;20050;-76
2022/06/09 23:09:04;;;;;;;11.05;2.50;;;;;;;-147.53;100.00;57128.34;10319461;28;20046;-75
2022/06/09 23:14:06;;;;;;;10.35;2.65;;;;;;;-147.53;100.00;57128.34;10322890;28;20046;-73
2022/06/09 23:19:09;;;;;;;9.40;2.85;;;;;;;-147.53;100.00;57128.34;10328234;28;20425;-75